createdAt,value
2023-12-13T00:01:59.171Z,8.27
2023-12-13T00:05:20.669Z,8.03
2023-12-13T00:08:42.018Z,8.17
2023-12-13T00:12:03.816Z,8.33
2023-12-13T00:15:25.294Z,7.67
2023-12-13T00:18:48.709Z,7.83
2023-12-13T00:22:10.509Z,8.93
2023-12-13T00:25:32.031Z,8.03
2023-12-13T00:28:53.512Z,9.00
2023-12-13T00:32:15.211Z,8.63
2023-12-13T00:35:38.237Z,8.40
2023-12-13T00:38:59.615Z,8.53
2023-12-13T00:42:21.028Z,9.47
2023-12-13T00:45:42.460Z,9.13
2023-12-13T00:49:04.465Z,8.73
2023-12-13T00:52:27.940Z,9.13
2023-12-13T00:55:51.565Z,8.47
2023-12-13T00:59:13.154Z,8.40
2023-12-13T01:02:34.567Z,8.23
2023-12-13T01:05:56.043Z,7.57
2023-12-13T01:09:18.869Z,7.50
2023-12-13T01:12:43.658Z,8.27
2023-12-13T01:16:05.909Z,7.37
2023-12-13T01:19:27.913Z,7.13
2023-12-13T01:22:49.586Z,6.87
2023-12-13T01:26:12.599Z,6.03
2023-12-13T01:29:34.210Z,6.30
2023-12-13T01:32:55.999Z,6.47
2023-12-13T01:36:17.726Z,5.67
2023-12-13T01:39:39.141Z,5.47
2023-12-13T01:43:01.896Z,5.30
2023-12-13T01:46:23.691Z,5.10
2023-12-13T01:49:45.626Z,4.70
2023-12-13T01:53:08.049Z,4.63
2023-12-13T01:56:31.216Z,5.07
2023-12-13T01:59:54.391Z,4.50
2023-12-13T02:03:16.969Z,4.73
2023-12-13T02:06:39.899Z,4.33
2023-12-13T02:10:01.228Z,4.40
2023-12-13T02:13:22.661Z,4.23
2023-12-13T02:16:45.219Z,4.23
2023-12-13T02:20:08.396Z,3.63
2023-12-13T02:23:31.125Z,3.73
2023-12-13T02:26:55.717Z,3.47
2023-12-13T02:30:17.246Z,4.40
2023-12-13T02:33:41.385Z,3.57
2023-12-13T02:37:03.817Z,3.63
2023-12-13T02:40:27.664Z,3.50
2023-12-13T02:43:49.260Z,3.23
2023-12-13T02:47:11.078Z,3.03
2023-12-13T02:50:32.560Z,3.27
2023-12-13T02:53:54.074Z,3.17
2023-12-13T02:57:16.731Z,3.17
2023-12-13T03:00:38.522Z,2.93
2023-12-13T03:04:00.178Z,2.87
2023-12-13T03:07:21.610Z,2.70
2023-12-13T03:10:43.628Z,2.90
2023-12-13T03:14:06.286Z,3.57
2023-12-13T03:17:27.712Z,3.17
2023-12-13T03:20:49.775Z,3.13
2023-12-13T03:24:11.361Z,3.00
2023-12-13T03:27:33.336Z,3.30
2023-12-13T03:30:56.489Z,3.00
2023-12-13T03:34:18.133Z,3.17
2023-12-13T03:37:39.407Z,3.17
2023-12-13T03:41:00.721Z,3.30
2023-12-13T03:44:22.459Z,3.33
2023-12-13T03:47:46.050Z,3.57
2023-12-13T03:51:07.910Z,3.83
2023-12-13T03:54:29.794Z,3.30
2023-12-13T03:57:51.353Z,3.57
2023-12-13T04:01:13.243Z,3.60
2023-12-13T04:04:36.452Z,3.20
2023-12-13T04:07:58.225Z,3.47
2023-12-13T04:11:19.860Z,3.30
2023-12-13T04:14:41.224Z,3.70
2023-12-13T04:18:02.701Z,3.23
2023-12-13T04:21:25.939Z,3.30
2023-12-13T04:24:47.587Z,3.50
2023-12-13T04:28:09.353Z,2.80
2023-12-13T04:31:31.061Z,3.10
2023-12-13T04:34:52.782Z,3.43
2023-12-13T04:38:16.006Z,3.17
2023-12-13T04:41:39.625Z,3.47
2023-12-13T04:45:01.433Z,3.50
2023-12-13T04:48:23.078Z,3.77
2023-12-13T04:51:44.515Z,3.50
2023-12-13T04:55:08.093Z,3.40
2023-12-13T04:58:30.517Z,4.10
2023-12-13T05:01:52.595Z,3.60
2023-12-13T05:05:13.916Z,4.13
2023-12-13T05:08:35.413Z,3.77
2023-12-13T05:11:58.372Z,3.73
2023-12-13T05:15:20.286Z,3.87
2023-12-13T05:18:41.619Z,3.90
2023-12-13T05:22:03.422Z,4.03
2023-12-13T05:25:25.117Z,4.10
2023-12-13T05:28:47.837Z,3.87
2023-12-13T05:32:09.501Z,3.80
2023-12-13T05:35:30.874Z,3.93
2023-12-13T05:38:52.518Z,4.23
2023-12-13T05:42:14.105Z,4.60
2023-12-13T05:45:36.749Z,4.47
2023-12-13T05:48:58.161Z,4.53
2023-12-13T05:52:19.561Z,4.30
2023-12-13T05:55:43.440Z,4.70
2023-12-13T05:59:04.757Z,4.70
2023-12-13T06:02:27.822Z,5.00
2023-12-13T06:05:49.368Z,4.90
2023-12-13T06:09:11.137Z,4.90
2023-12-13T06:12:32.575Z,5.53
2023-12-13T06:15:54.374Z,5.10
2023-12-13T06:19:17.469Z,5.43
2023-12-13T06:22:39.410Z,5.27
2023-12-13T06:26:00.754Z,5.50
2023-12-13T06:29:22.341Z,4.77
2023-12-13T06:32:43.677Z,5.23
2023-12-13T06:36:07.147Z,5.07
2023-12-13T06:39:28.556Z,5.37
2023-12-13T06:42:49.937Z,4.87
2023-12-13T06:46:11.386Z,5.43
2023-12-13T06:49:33.705Z,5.33
2023-12-13T06:52:56.809Z,6.00
2023-12-13T06:56:18.744Z,5.00
2023-12-13T06:59:40.897Z,5.33
2023-12-13T07:03:02.926Z,5.33
2023-12-13T07:06:24.628Z,5.20
2023-12-13T07:09:47.808Z,5.73
2023-12-13T07:13:09.113Z,5.03
2023-12-13T07:16:30.641Z,5.77
2023-12-13T07:19:53.528Z,5.97
2023-12-13T07:23:15.394Z,5.00
2023-12-13T07:26:38.110Z,5.13
2023-12-13T07:29:59.456Z,5.27
2023-12-13T07:33:21.072Z,5.07
2023-12-13T07:36:46.879Z,5.47
2023-12-13T07:40:09.615Z,5.37
2023-12-13T07:43:32.899Z,5.47
2023-12-13T07:46:54.610Z,4.60
2023-12-13T07:50:16.471Z,5.40
2023-12-13T07:53:39.776Z,5.00
2023-12-13T07:57:01.570Z,4.97
2023-12-13T08:00:24.641Z,5.03
2023-12-13T08:03:46.423Z,4.90
2023-12-13T08:07:07.911Z,4.07
2023-12-13T08:10:29.459Z,4.30
2023-12-13T08:13:51.059Z,4.10
2023-12-13T08:17:14.394Z,4.83
2023-12-13T08:20:35.739Z,4.50
2023-12-13T08:23:57.366Z,4.60
2023-12-13T08:27:18.682Z,4.37
2023-12-13T08:30:39.987Z,4.23
2023-12-13T08:34:02.958Z,4.40
2023-12-13T08:37:24.567Z,4.30
2023-12-13T08:40:46.347Z,4.20
2023-12-13T08:44:07.756Z,4.20
2023-12-13T08:47:29.591Z,4.40
2023-12-13T08:50:52.505Z,4.30
2023-12-13T08:54:13.847Z,5.07
2023-12-13T08:57:35.888Z,4.50
2023-12-13T09:00:57.971Z,4.60
2023-12-13T09:04:21.435Z,4.80
2023-12-13T09:07:44.193Z,4.77
2023-12-13T09:11:06.624Z,4.37
2023-12-13T09:14:28.882Z,4.57
2023-12-13T09:17:50.373Z,5.33
2023-12-13T09:21:11.887Z,5.63
2023-12-13T09:24:35.341Z,4.67
2023-12-13T09:27:57.063Z,6.00
2023-12-13T09:31:18.738Z,5.83
2023-12-13T09:34:40.192Z,5.03
2023-12-13T09:38:01.709Z,4.80
2023-12-13T09:41:28.955Z,4.10
2023-12-13T09:44:52.040Z,4.13
2023-12-13T09:48:14.428Z,4.77
2023-12-13T09:51:37.570Z,5.00
2023-12-13T09:54:59.471Z,4.50
2023-12-13T09:58:22.581Z,5.10
2023-12-13T10:01:44.175Z,5.03
2023-12-13T10:05:07.742Z,4.53
2023-12-13T10:08:29.287Z,4.90
2023-12-13T10:11:51.476Z,4.27
2023-12-13T10:15:15.286Z,4.77
2023-12-13T10:18:36.960Z,4.40
2023-12-13T10:21:58.383Z,4.30
2023-12-13T10:25:21.494Z,4.10
2023-12-13T10:28:43.420Z,4.13
2023-12-13T10:32:07.189Z,4.33
2023-12-13T10:35:28.930Z,4.10
2023-12-13T10:38:54.252Z,3.10
2023-12-13T10:42:19.139Z,4.07
2023-12-13T10:45:44.800Z,3.60
2023-12-13T10:49:08.422Z,3.90
2023-12-13T10:52:32.383Z,3.87
2023-12-13T10:55:54.677Z,3.50
2023-12-13T10:59:17.768Z,3.30
2023-12-13T11:02:49.113Z,3.30
2023-12-13T11:06:14.562Z,3.20
2023-12-13T11:09:36.973Z,3.20
2023-12-13T11:13:00.250Z,3.37
2023-12-13T11:16:22.791Z,3.47
2023-12-13T11:19:44.957Z,3.13
2023-12-13T11:23:09.626Z,3.00
2023-12-13T11:26:33.845Z,3.00
2023-12-13T11:29:55.602Z,3.00
2023-12-13T11:33:18.396Z,2.73
2023-12-13T11:36:42.157Z,3.50
2023-12-13T11:40:07.468Z,3.20
2023-12-13T11:43:29.411Z,3.10
2023-12-13T11:46:57.236Z,2.90
2023-12-13T11:50:20.775Z,3.00
2023-12-13T11:53:43.248Z,2.90
2023-12-13T11:57:14.061Z,3.20
2023-12-13T12:00:35.674Z,2.63
2023-12-13T12:03:57.053Z,2.30
2023-12-13T12:07:19.940Z,2.93
2023-12-13T12:10:44.825Z,2.43
2023-12-13T12:14:09.598Z,2.37
2023-12-13T12:17:32.389Z,2.73
2023-12-13T12:20:53.937Z,2.50
2023-12-13T12:24:15.443Z,2.60
2023-12-13T12:27:39.276Z,2.23
2023-12-13T12:31:01.982Z,2.10
2023-12-13T12:34:23.623Z,2.37
2023-12-13T12:37:46.085Z,2.37
2023-12-13T12:41:07.860Z,2.10
2023-12-13T12:44:29.478Z,2.33
2023-12-13T12:47:52.533Z,2.00
2023-12-13T12:51:13.809Z,2.00
2023-12-13T12:54:35.281Z,2.37
2023-12-13T12:57:56.830Z,1.90
2023-12-13T13:01:18.620Z,2.17
2023-12-13T13:04:41.665Z,2.30
2023-12-13T13:08:03.700Z,2.40
2023-12-13T13:11:25.055Z,1.90
2023-12-13T13:14:46.453Z,2.00
2023-12-13T13:18:07.769Z,2.00
2023-12-13T13:21:30.516Z,2.50
2023-12-13T13:24:51.852Z,2.00
2023-12-13T13:28:13.274Z,4.67
2023-12-13T13:31:34.884Z,2.40
2023-12-13T13:34:57.376Z,2.00
2023-12-13T13:38:20.177Z,1.90
2023-12-13T13:41:42.227Z,2.10
2023-12-13T13:45:04.049Z,2.10
2023-12-13T13:48:25.615Z,1.80
2023-12-13T13:51:47.310Z,2.10
2023-12-13T13:55:10.786Z,1.73
2023-12-13T13:58:32.646Z,1.77
2023-12-13T14:01:54.060Z,1.73
2023-12-13T14:05:15.569Z,1.87
2023-12-13T14:08:37.410Z,1.77
2023-12-13T14:12:00.465Z,1.97
2023-12-13T14:15:21.880Z,1.67
2023-12-13T14:18:43.704Z,1.80
2023-12-13T14:22:05.497Z,1.80
2023-12-13T14:25:27.040Z,1.83
2023-12-13T14:28:49.840Z,1.60
2023-12-13T14:32:11.890Z,1.97
2023-12-13T14:35:33.642Z,1.70
2023-12-13T14:38:55.470Z,1.70
2023-12-13T14:42:17.103Z,1.27
2023-12-13T14:45:39.781Z,1.53
2023-12-13T14:49:01.184Z,2.30
2023-12-13T14:52:24.170Z,2.47
2023-12-13T14:55:46.029Z,1.73
2023-12-13T14:59:07.407Z,1.63
2023-12-13T15:02:31.240Z,1.70
2023-12-13T15:05:53.090Z,1.60
2023-12-13T15:09:14.439Z,1.80
2023-12-13T15:12:37.699Z,1.70
2023-12-13T15:15:59.899Z,1.70
2023-12-13T15:19:23.042Z,1.43
2023-12-13T15:22:46.007Z,1.60
2023-12-13T15:26:09.076Z,1.70
2023-12-13T15:29:30.734Z,2.07
2023-12-13T15:32:52.300Z,1.70
2023-12-13T15:36:15.628Z,2.00
2023-12-13T15:39:36.818Z,2.00
2023-12-13T15:42:58.131Z,1.60
2023-12-13T15:46:21.152Z,1.90
2023-12-13T15:49:44.879Z,1.80
2023-12-13T15:53:09.540Z,2.10
2023-12-13T15:56:31.348Z,2.00
2023-12-13T15:59:52.915Z,1.87
2023-12-13T16:03:14.272Z,1.80
2023-12-13T16:06:35.671Z,1.70
2023-12-13T16:09:58.364Z,1.80
2023-12-13T16:13:19.665Z,1.97
2023-12-13T16:16:41.053Z,2.07
2023-12-13T16:20:02.894Z,2.43
2023-12-13T16:23:24.471Z,1.87
2023-12-13T16:26:47.293Z,2.20
2023-12-13T16:30:09.836Z,2.50
2023-12-13T16:33:33.189Z,2.17
2023-12-13T16:36:55.003Z,2.10
2023-12-13T16:40:16.622Z,2.30
2023-12-13T16:43:39.338Z,2.27
2023-12-13T16:47:00.747Z,2.30
2023-12-13T16:50:22.720Z,2.30
2023-12-13T16:53:51.222Z,2.40
2023-12-13T16:57:13.879Z,2.60
2023-12-13T17:00:38.269Z,2.40
2023-12-13T17:04:00.631Z,2.60
2023-12-13T17:07:27.030Z,2.80
2023-12-13T17:10:48.683Z,2.70
2023-12-13T17:14:10.339Z,2.70
2023-12-13T17:17:33.565Z,2.97
2023-12-13T17:20:55.092Z,2.77
2023-12-13T17:24:16.744Z,3.10
2023-12-13T17:27:39.588Z,2.70
2023-12-13T17:31:02.096Z,2.70
2023-12-13T17:34:24.914Z,2.80
2023-12-13T17:37:46.735Z,3.27
2023-12-13T17:41:09.383Z,2.80
2023-12-13T17:44:31.071Z,3.07
2023-12-13T17:47:52.464Z,3.00
2023-12-13T17:51:15.228Z,3.50
2023-12-13T17:54:37.274Z,3.00
2023-12-13T17:57:58.956Z,2.57
2023-12-13T18:01:20.511Z,2.80
2023-12-13T18:04:42.700Z,2.63
2023-12-13T18:08:06.205Z,3.33
2023-12-13T18:11:29.212Z,3.10
2023-12-13T18:14:50.895Z,12.73
2023-12-13T18:18:12.683Z,8.13
2023-12-13T18:21:34.421Z,13.50
2023-12-13T18:24:57.531Z,16.23
2023-12-13T18:28:19.011Z,3.83
2023-12-13T18:31:40.508Z,8.50
2023-12-13T18:35:02.188Z,5.03
2023-12-13T18:38:24.422Z,3.13
2023-12-13T18:41:47.192Z,2.00
2023-12-13T18:45:10.485Z,2.30
2023-12-13T18:48:32.092Z,2.40
2023-12-13T18:51:54.412Z,2.00
2023-12-13T18:55:16.179Z,2.30
2023-12-13T18:58:38.925Z,2.30
2023-12-13T19:02:00.505Z,2.30
2023-12-13T19:05:22.039Z,2.30
2023-12-13T19:08:43.867Z,2.20
2023-12-13T19:12:05.887Z,2.60
2023-12-13T19:15:28.905Z,2.27
2023-12-13T19:18:50.279Z,2.10
2023-12-13T19:22:11.846Z,2.30
2023-12-13T19:25:33.281Z,2.23
2023-12-13T19:28:54.822Z,1.87
2023-12-13T19:32:17.856Z,2.07
2023-12-13T19:35:39.252Z,1.93
2023-12-13T19:39:00.747Z,1.97
2023-12-13T19:42:22.035Z,3.33
2023-12-13T19:45:43.759Z,2.47
2023-12-13T19:49:06.585Z,2.23
2023-12-13T19:52:28.382Z,2.33
2023-12-13T19:55:49.844Z,1.97
2023-12-13T19:59:12.244Z,2.50
2023-12-13T20:02:33.737Z,2.60
2023-12-13T20:05:56.522Z,2.40
2023-12-13T20:09:18.690Z,2.90
2023-12-13T20:12:40.402Z,2.57
2023-12-13T20:16:01.985Z,2.67
2023-12-13T20:19:26.065Z,2.60
2023-12-13T20:22:48.961Z,3.20
2023-12-13T20:26:10.518Z,2.60
2023-12-13T20:29:32.053Z,2.70
2023-12-13T20:32:53.728Z,2.47
2023-12-13T20:36:15.727Z,2.37
2023-12-13T20:39:38.808Z,2.47
2023-12-13T20:43:00.173Z,2.40
2023-12-13T20:46:21.482Z,2.10
2023-12-13T20:49:43.455Z,2.50
2023-12-13T20:53:04.914Z,2.63
2023-12-13T20:56:29.380Z,2.33
2023-12-13T20:59:51.003Z,2.43
2023-12-13T21:03:14.020Z,2.50
2023-12-13T21:06:35.504Z,2.50
2023-12-13T21:09:57.157Z,3.80
2023-12-13T21:13:19.898Z,2.53
2023-12-13T21:16:41.583Z,2.47
2023-12-13T21:20:03.005Z,2.47
2023-12-13T21:23:24.539Z,2.53
2023-12-13T21:26:46.281Z,2.57
2023-12-13T21:30:10.303Z,2.37
2023-12-13T21:33:32.220Z,2.50
2023-12-13T21:36:53.929Z,2.47
2023-12-13T21:40:15.984Z,4.53
2023-12-13T21:43:37.246Z,2.80
2023-12-13T21:46:59.977Z,2.30
2023-12-13T21:50:21.643Z,2.43
2023-12-13T21:53:46.587Z,2.63
2023-12-13T21:57:08.000Z,2.23
2023-12-13T22:00:29.509Z,1.90
2023-12-13T22:03:53.154Z,2.20
2023-12-13T22:07:14.800Z,2.10
2023-12-13T22:10:36.542Z,2.10
2023-12-13T22:13:58.021Z,2.20
2023-12-13T22:17:23.655Z,1.90
2023-12-13T22:20:46.381Z,1.67
2023-12-13T22:24:08.050Z,1.53
2023-12-13T22:27:29.457Z,2.27
2023-12-13T22:30:51.105Z,1.60
2023-12-13T22:34:13.411Z,1.60
2023-12-13T22:37:36.266Z,1.90
2023-12-13T22:40:58.054Z,1.70
2023-12-13T22:44:19.716Z,6.03
2023-12-13T22:47:41.113Z,1.70
2023-12-13T22:51:02.814Z,1.70
2023-12-13T22:54:25.432Z,1.60
2023-12-13T22:57:47.459Z,1.40
2023-12-13T23:01:09.320Z,1.50
2023-12-13T23:04:30.809Z,1.67
2023-12-13T23:07:52.428Z,1.83
2023-12-13T23:11:15.249Z,1.27
2023-12-13T23:14:36.561Z,2.33
2023-12-13T23:17:58.358Z,1.90
2023-12-13T23:21:20.148Z,1.57
2023-12-13T23:24:41.647Z,1.77
2023-12-13T23:28:04.383Z,2.10
2023-12-13T23:31:33.226Z,1.70
2023-12-13T23:35:00.734Z,2.40
2023-12-13T23:38:22.171Z,2.37
2023-12-13T23:41:43.645Z,1.50
2023-12-13T23:45:07.296Z,1.40
2023-12-13T23:48:28.997Z,1.50
2023-12-13T23:51:51.061Z,1.20
2023-12-13T23:55:12.336Z,1.70
2023-12-13T23:58:34.177Z,1.40
